sensor_id;sensor_type;location;lat;lon;timestamp;pressure;altitude;pressure_sealevel;temperature;humidity
73518;BME280;61766;60.318;25.044;2023-08-08T00:01:34;99386.32;;;26.78;37.76
73518;BME280;61766;60.318;25.044;2023-08-08T00:04:00;99374.09;;;25.74;39.04
73518;BME280;61766;60.318;25.044;2023-08-08T00:06:25;99374.29;;;26.21;39.06
73518;BME280;61766;60.318;25.044;2023-08-08T00:08:51;99370.34;;;26.29;38.38
73518;BME280;61766;60.318;25.044;2023-08-08T00:11:17;99361.54;;;26.24;38.28
73518;BME280;61766;60.318;25.044;2023-08-08T00:13:42;99354.00;;;26.37;38.04
73518;BME280;61766;60.318;25.044;2023-08-08T00:16:08;99351.23;;;25.78;38.83
73518;BME280;61766;60.318;25.044;2023-08-08T00:18:34;99348.96;;;25.58;39.06
73518;BME280;61766;60.318;25.044;2023-08-08T00:20:59;99358.31;;;25.66;38.94
73518;BME280;61766;60.318;25.044;2023-08-08T00:23:25;99352.61;;;26.62;38.33
73518;BME280;61766;60.318;25.044;2023-08-08T00:25:52;99349.57;;;26.56;38.33
73518;BME280;61766;60.318;25.044;2023-08-08T00:28:16;99348.57;;;26.33;38.35
73518;BME280;61766;60.318;25.044;2023-08-08T00:30:42;99340.36;;;25.97;39.21
73518;BME280;61766;60.318;25.044;2023-08-08T00:33:08;99332.85;;;26.34;38.05
73518;BME280;61766;60.318;25.044;2023-08-08T00:35:33;99336.35;;;26.33;37.66
73518;BME280;61766;60.318;25.044;2023-08-08T00:37:58;99326.96;;;26.83;38.10
73518;BME280;61766;60.318;25.044;2023-08-08T00:40:24;99321.87;;;26.35;37.99
73518;BME280;61766;60.318;25.044;2023-08-08T00:42:49;99311.05;;;26.55;37.76
73518;BME280;61766;60.318;25.044;2023-08-08T00:45:15;99332.33;;;26.64;37.61
73518;BME280;61766;60.318;25.044;2023-08-08T00:47:40;99342.43;;;26.24;38.48
73518;BME280;61766;60.318;25.044;2023-08-08T00:50:07;99343.34;;;26.39;38.33
73518;BME280;61766;60.318;25.044;2023-08-08T00:52:32;99340.90;;;26.56;37.87
73518;BME280;61766;60.318;25.044;2023-08-08T00:54:57;99342.47;;;26.49;37.99
73518;BME280;61766;60.318;25.044;2023-08-08T00:57:23;99335.12;;;25.86;39.57
73518;BME280;61766;60.318;25.044;2023-08-08T00:59:48;99327.47;;;26.60;38.58
73518;BME280;61766;60.318;25.044;2023-08-08T01:02:14;99327.09;;;26.28;38.75
73518;BME280;61766;60.318;25.044;2023-08-08T01:04:40;99327.32;;;26.17;38.60
73518;BME280;61766;60.318;25.044;2023-08-08T01:07:12;99323.08;;;26.13;39.12
73518;BME280;61766;60.318;25.044;2023-08-08T01:09:33;99320.37;;;26.44;38.94
73518;BME280;61766;60.318;25.044;2023-08-08T01:11:57;99319.85;;;25.55;40.28
73518;BME280;61766;60.318;25.044;2023-08-08T01:14:23;99317.97;;;26.25;39.23
73518;BME280;61766;60.318;25.044;2023-08-08T01:16:47;99334.14;;;25.46;39.83
73518;BME280;61766;60.318;25.044;2023-08-08T01:19:23;99325.97;;;26.03;38.93
73518;BME280;61766;60.318;25.044;2023-08-08T01:21:41;99324.81;;;26.18;39.34
73518;BME280;61766;60.318;25.044;2023-08-08T01:24:14;99319.85;;;25.38;39.87
73518;BME280;61766;60.318;25.044;2023-08-08T01:26:29;99326.39;;;25.43;40.30
73518;BME280;61766;60.318;25.044;2023-08-08T01:28:56;99322.29;;;25.70;40.18
73518;BME280;61766;60.318;25.044;2023-08-08T01:31:20;99320.25;;;25.76;40.12
73518;BME280;61766;60.318;25.044;2023-08-08T01:33:45;99318.12;;;25.15;41.10
73518;BME280;61766;60.318;25.044;2023-08-08T01:36:17;99321.90;;;25.46;40.73
73518;BME280;61766;60.318;25.044;2023-08-08T01:38:40;99321.91;;;24.76;41.75
73518;BME280;61766;60.318;25.044;2023-08-08T01:41:04;99327.92;;;25.19;41.82
73518;BME280;61766;60.318;25.044;2023-08-08T01:43:29;99344.65;;;24.71;42.22
73518;BME280;61766;60.318;25.044;2023-08-08T01:45:54;99336.41;;;24.35;43.25
73518;BME280;61766;60.318;25.044;2023-08-08T01:48:20;99337.81;;;24.15;43.99
73518;BME280;61766;60.318;25.044;2023-08-08T01:50:45;99337.02;;;23.93;43.93
73518;BME280;61766;60.318;25.044;2023-08-08T01:53:11;99329.25;;;24.83;42.57
73518;BME280;61766;60.318;25.044;2023-08-08T01:55:37;99335.04;;;24.18;43.64
73518;BME280;61766;60.318;25.044;2023-08-08T01:58:02;99334.41;;;24.10;44.18
73518;BME280;61766;60.318;25.044;2023-08-08T02:00:27;99332.81;;;24.43;43.94
73518;BME280;61766;60.318;25.044;2023-08-08T02:02:53;99316.26;;;24.25;43.59
73518;BME280;61766;60.318;25.044;2023-08-08T02:05:18;99328.55;;;23.61;45.30
73518;BME280;61766;60.318;25.044;2023-08-08T02:07:44;99314.31;;;24.01;44.28
73518;BME280;61766;60.318;25.044;2023-08-08T02:10:10;99311.00;;;23.62;45.71
73518;BME280;61766;60.318;25.044;2023-08-08T02:12:35;99299.95;;;23.45;44.86
73518;BME280;61766;60.318;25.044;2023-08-08T02:15:01;99289.22;;;24.52;43.87
73518;BME280;61766;60.318;25.044;2023-08-08T02:17:28;99285.30;;;23.69;45.07
73518;BME280;61766;60.318;25.044;2023-08-08T02:19:52;99289.89;;;23.96;43.88
73518;BME280;61766;60.318;25.044;2023-08-08T02:22:18;99268.41;;;24.06;44.55
73518;BME280;61766;60.318;25.044;2023-08-08T02:24:43;99272.49;;;23.23;46.19
73518;BME280;61766;60.318;25.044;2023-08-08T02:27:09;99284.05;;;23.05;46.34
73518;BME280;61766;60.318;25.044;2023-08-08T02:29:34;99277.93;;;23.99;45.17
73518;BME280;61766;60.318;25.044;2023-08-08T02:32:00;99260.26;;;24.47;44.22
73518;BME280;61766;60.318;25.044;2023-08-08T02:34:25;99254.72;;;23.97;44.66
73518;BME280;61766;60.318;25.044;2023-08-08T02:36:50;99255.56;;;23.56;45.29
73518;BME280;61766;60.318;25.044;2023-08-08T02:39:16;99261.86;;;23.02;45.79
73518;BME280;61766;60.318;25.044;2023-08-08T02:41:41;99262.74;;;23.49;45.20
73518;BME280;61766;60.318;25.044;2023-08-08T02:44:07;99240.58;;;23.92;44.43
73518;BME280;61766;60.318;25.044;2023-08-08T02:46:33;99238.75;;;24.44;43.16
73518;BME280;61766;60.318;25.044;2023-08-08T02:48:58;99252.30;;;24.52;43.28
73518;BME280;61766;60.318;25.044;2023-08-08T02:51:24;99274.70;;;23.66;44.08
73518;BME280;61766;60.318;25.044;2023-08-08T02:53:49;99254.78;;;24.07;43.33
73518;BME280;61766;60.318;25.044;2023-08-08T02:56:15;99260.43;;;23.09;45.24
73518;BME280;61766;60.318;25.044;2023-08-08T02:58:40;99252.86;;;23.74;44.17
73518;BME280;61766;60.318;25.044;2023-08-08T03:01:06;99259.84;;;23.59;44.11
73518;BME280;61766;60.318;25.044;2023-08-08T03:03:31;99257.19;;;23.90;44.67
73518;BME280;61766;60.318;25.044;2023-08-08T03:05:56;99241.64;;;23.57;44.35
73518;BME280;61766;60.318;25.044;2023-08-08T03:08:22;99245.23;;;23.72;44.46
73518;BME280;61766;60.318;25.044;2023-08-08T03:10:49;99232.63;;;24.17;43.35
73518;BME280;61766;60.318;25.044;2023-08-08T03:13:13;99248.03;;;23.01;44.79
73518;BME280;61766;60.318;25.044;2023-08-08T03:15:39;99241.21;;;23.98;43.13
73518;BME280;61766;60.318;25.044;2023-08-08T03:18:04;99250.28;;;23.66;43.76
73518;BME280;61766;60.318;25.044;2023-08-08T03:20:30;99261.53;;;23.42;45.02
73518;BME280;61766;60.318;25.044;2023-08-08T03:22:55;99249.09;;;24.00;43.90
73518;BME280;61766;60.318;25.044;2023-08-08T03:25:20;99255.34;;;24.39;43.05
73518;BME280;61766;60.318;25.044;2023-08-08T03:27:46;99240.45;;;23.48;44.00
73518;BME280;61766;60.318;25.044;2023-08-08T03:30:13;99246.50;;;23.42;44.42
73518;BME280;61766;60.318;25.044;2023-08-08T03:32:37;99243.87;;;23.71;44.01
73518;BME280;61766;60.318;25.044;2023-08-08T03:35:03;99237.99;;;24.00;43.24
73518;BME280;61766;60.318;25.044;2023-08-08T03:37:28;99245.46;;;23.35;44.03
73518;BME280;61766;60.318;25.044;2023-08-08T03:39:54;99237.01;;;22.95;44.29
73518;BME280;61766;60.318;25.044;2023-08-08T03:42:20;99237.38;;;23.37;44.49
73518;BME280;61766;60.318;25.044;2023-08-08T03:44:45;99235.83;;;24.17;43.22
73518;BME280;61766;60.318;25.044;2023-08-08T03:47:11;99231.95;;;23.49;44.11
73518;BME280;61766;60.318;25.044;2023-08-08T03:49:36;99235.63;;;23.09;44.68
73518;BME280;61766;60.318;25.044;2023-08-08T03:52:02;99243.26;;;22.85;45.11
73518;BME280;61766;60.318;25.044;2023-08-08T03:54:28;99233.78;;;22.88;45.10
73518;BME280;61766;60.318;25.044;2023-08-08T03:56:53;99229.25;;;23.30;44.53
73518;BME280;61766;60.318;25.044;2023-08-08T03:59:19;99225.48;;;23.68;43.92
73518;BME280;61766;60.318;25.044;2023-08-08T04:01:45;99236.49;;;23.24;44.43
73518;BME280;61766;60.318;25.044;2023-08-08T04:04:10;99230.35;;;23.50;44.34
73518;BME280;61766;60.318;25.044;2023-08-08T04:06:36;99218.75;;;23.34;44.08
73518;BME280;61766;60.318;25.044;2023-08-08T04:09:01;99232.90;;;23.43;44.23
73518;BME280;61766;60.318;25.044;2023-08-08T04:11:27;99232.79;;;22.65;44.97
73518;BME280;61766;60.318;25.044;2023-08-08T04:13:52;99241.77;;;22.96;44.54
73518;BME280;61766;60.318;25.044;2023-08-08T04:16:18;99244.45;;;22.58;44.98
73518;BME280;61766;60.318;25.044;2023-08-08T04:18:43;99247.48;;;23.00;43.94
73518;BME280;61766;60.318;25.044;2023-08-08T04:21:09;99254.40;;;22.46;44.34
73518;BME280;61766;60.318;25.044;2023-08-08T04:23:34;99253.59;;;21.70;46.51
73518;BME280;61766;60.318;25.044;2023-08-08T04:26:00;99250.20;;;21.21;46.53
73518;BME280;61766;60.318;25.044;2023-08-08T04:28:25;99262.06;;;21.04;47.34
73518;BME280;61766;60.318;25.044;2023-08-08T04:30:51;99259.41;;;21.57;46.31
73518;BME280;61766;60.318;25.044;2023-08-08T04:33:17;99262.29;;;21.70;46.16
73518;BME280;61766;60.318;25.044;2023-08-08T04:35:42;99268.98;;;21.51;46.58
73518;BME280;61766;60.318;25.044;2023-08-08T04:38:08;99266.57;;;21.53;46.88
73518;BME280;61766;60.318;25.044;2023-08-08T04:40:34;99261.03;;;21.93;46.19
73518;BME280;61766;60.318;25.044;2023-08-08T04:42:59;99261.49;;;22.48;44.35
73518;BME280;61766;60.318;25.044;2023-08-08T04:45:25;99284.88;;;22.53;45.24
73518;BME280;61766;60.318;25.044;2023-08-08T04:47:51;99261.98;;;21.95;46.62
73518;BME280;61766;60.318;25.044;2023-08-08T04:50:16;99260.46;;;21.35;47.44
73518;BME280;61766;60.318;25.044;2023-08-08T04:52:42;99277.84;;;21.83;45.82
73518;BME280;61766;60.318;25.044;2023-08-08T04:55:08;99264.80;;;21.70;46.55
73518;BME280;61766;60.318;25.044;2023-08-08T04:57:33;99250.67;;;21.00;47.94
73518;BME280;61766;60.318;25.044;2023-08-08T04:59:59;99262.73;;;21.46;47.32
73518;BME280;61766;60.318;25.044;2023-08-08T05:02:24;99261.04;;;21.69;46.66
73518;BME280;61766;60.318;25.044;2023-08-08T05:04:50;99277.43;;;21.31;46.47
73518;BME280;61766;60.318;25.044;2023-08-08T05:07:16;99267.77;;;21.59;46.62
73518;BME280;61766;60.318;25.044;2023-08-08T05:09:41;99281.24;;;21.16;46.87
73518;BME280;61766;60.318;25.044;2023-08-08T05:12:08;99248.73;;;21.33;46.30
73518;BME280;61766;60.318;25.044;2023-08-08T05:14:33;99244.81;;;21.66;45.84
73518;BME280;61766;60.318;25.044;2023-08-08T05:16:58;99239.70;;;21.28;46.70
73518;BME280;61766;60.318;25.044;2023-08-08T05:19:24;99240.32;;;21.66;46.18
73518;BME280;61766;60.318;25.044;2023-08-08T05:21:50;99234.33;;;22.37;44.72
73518;BME280;61766;60.318;25.044;2023-08-08T05:24:15;99226.80;;;22.23;45.17
73518;BME280;61766;60.318;25.044;2023-08-08T05:26:41;99238.72;;;22.35;44.80
73518;BME280;61766;60.318;25.044;2023-08-08T05:29:06;99225.72;;;21.90;45.45
73518;BME280;61766;60.318;25.044;2023-08-08T05:31:32;99230.52;;;21.56;45.18
73518;BME280;61766;60.318;25.044;2023-08-08T05:33:58;99246.81;;;21.63;45.62
73518;BME280;61766;60.318;25.044;2023-08-08T05:36:24;99228.73;;;21.50;45.79
73518;BME280;61766;60.318;25.044;2023-08-08T05:38:49;99243.69;;;22.04;44.79
73518;BME280;61766;60.318;25.044;2023-08-08T05:41:14;99254.41;;;22.47;43.72
73518;BME280;61766;60.318;25.044;2023-08-08T05:43:40;99252.68;;;22.68;43.64
73518;BME280;61766;60.318;25.044;2023-08-08T05:46:05;99265.39;;;21.54;45.07
73518;BME280;61766;60.318;25.044;2023-08-08T05:48:31;99261.35;;;22.04;44.82
73518;BME280;61766;60.318;25.044;2023-08-08T05:50:56;99255.30;;;22.29;44.18
73518;BME280;61766;60.318;25.044;2023-08-08T05:53:22;99244.60;;;21.10;46.87
73518;BME280;61766;60.318;25.044;2023-08-08T05:55:47;99274.74;;;21.12;47.69
73518;BME280;61766;60.318;25.044;2023-08-08T05:58:13;99285.53;;;22.05;46.52
73518;BME280;61766;60.318;25.044;2023-08-08T06:00:40;99298.64;;;21.05;47.90
73518;BME280;61766;60.318;25.044;2023-08-08T06:03:05;99302.39;;;21.38;48.08
73518;BME280;61766;60.318;25.044;2023-08-08T06:05:30;99302.71;;;21.04;49.23
73518;BME280;61766;60.318;25.044;2023-08-08T06:07:56;99320.60;;;20.78;50.45
73518;BME280;61766;60.318;25.044;2023-08-08T06:10:22;99315.08;;;20.24;51.56
73518;BME280;61766;60.318;25.044;2023-08-08T06:12:47;99321.34;;;20.16;52.02
73518;BME280;61766;60.318;25.044;2023-08-08T06:15:13;99360.05;;;20.12;53.40
73518;BME280;61766;60.318;25.044;2023-08-08T06:17:38;99340.87;;;20.37;53.44
73518;BME280;61766;60.318;25.044;2023-08-08T06:20:05;99341.74;;;20.39;53.03
73518;BME280;61766;60.318;25.044;2023-08-08T06:22:30;99354.47;;;20.46;52.72
73518;BME280;61766;60.318;25.044;2023-08-08T06:24:56;99384.70;;;19.80;53.75
73518;BME280;61766;60.318;25.044;2023-08-08T06:27:21;99368.08;;;19.67;55.46
73518;BME280;61766;60.318;25.044;2023-08-08T06:29:47;99400.80;;;20.02;54.15
73518;BME280;61766;60.318;25.044;2023-08-08T06:32:12;99390.78;;;19.36;54.09
73518;BME280;61766;60.318;25.044;2023-08-08T06:34:38;99411.75;;;19.72;53.01
73518;BME280;61766;60.318;25.044;2023-08-08T06:37:04;99415.68;;;18.95;54.92
73518;BME280;61766;60.318;25.044;2023-08-08T06:39:29;99415.95;;;19.29;54.28
73518;BME280;61766;60.318;25.044;2023-08-08T06:41:55;99441.25;;;18.49;54.71
73518;BME280;61766;60.318;25.044;2023-08-08T06:44:21;99444.54;;;18.68;54.19
73518;BME280;61766;60.318;25.044;2023-08-08T06:46:47;99477.30;;;18.58;53.52
73518;BME280;61766;60.318;25.044;2023-08-08T06:49:12;99483.36;;;18.01;54.19
73518;BME280;61766;60.318;25.044;2023-08-08T06:51:38;99461.40;;;18.82;53.99
73518;BME280;61766;60.318;25.044;2023-08-08T06:54:04;99468.39;;;17.52;54.92
73518;BME280;61766;60.318;25.044;2023-08-08T06:56:29;99477.90;;;18.24;54.46
73518;BME280;61766;60.318;25.044;2023-08-08T06:58:55;99480.07;;;17.42;56.11
73518;BME280;61766;60.318;25.044;2023-08-08T07:01:21;99485.41;;;18.60;52.73
73518;BME280;61766;60.318;25.044;2023-08-08T07:03:46;99528.78;;;18.91;51.66
73518;BME280;61766;60.318;25.044;2023-08-08T07:06:12;99515.75;;;18.04;53.05
73518;BME280;61766;60.318;25.044;2023-08-08T07:08:38;99533.59;;;17.52;53.97
73518;BME280;61766;60.318;25.044;2023-08-08T07:11:04;99510.32;;;17.56;55.29
73518;BME280;61766;60.318;25.044;2023-08-08T07:13:29;99517.68;;;18.09;53.77
73518;BME280;61766;60.318;25.044;2023-08-08T07:15:55;99528.43;;;17.67;54.77
73518;BME280;61766;60.318;25.044;2023-08-08T07:18:21;99544.97;;;17.40;55.06
73518;BME280;61766;60.318;25.044;2023-08-08T07:20:46;99527.79;;;18.12;53.37
73518;BME280;61766;60.318;25.044;2023-08-08T07:23:12;99529.56;;;17.62;53.74
73518;BME280;61766;60.318;25.044;2023-08-08T07:25:38;99541.99;;;18.05;53.26
73518;BME280;61766;60.318;25.044;2023-08-08T07:28:03;99546.71;;;18.23;52.87
73518;BME280;61766;60.318;25.044;2023-08-08T07:30:29;99553.46;;;17.45;54.64
73518;BME280;61766;60.318;25.044;2023-08-08T07:32:55;99561.00;;;18.69;51.67
73518;BME280;61766;60.318;25.044;2023-08-08T07:35:21;99565.13;;;18.20;52.65
73518;BME280;61766;60.318;25.044;2023-08-08T07:37:46;99584.23;;;18.17;52.37
73518;BME280;61766;60.318;25.044;2023-08-08T07:40:18;99576.42;;;18.14;53.13
73518;BME280;61766;60.318;25.044;2023-08-08T07:42:37;99593.36;;;18.01;54.42
73518;BME280;61766;60.318;25.044;2023-08-08T07:45:04;99592.51;;;17.45;55.35
73518;BME280;61766;60.318;25.044;2023-08-08T07:47:29;99596.40;;;17.59;54.92
73518;BME280;61766;60.318;25.044;2023-08-08T07:49:55;99613.09;;;17.52;55.31
73518;BME280;61766;60.318;25.044;2023-08-08T07:52:20;99619.97;;;17.99;54.27
73518;BME280;61766;60.318;25.044;2023-08-08T07:54:46;99630.70;;;17.10;55.42
73518;BME280;61766;60.318;25.044;2023-08-08T07:57:12;99646.75;;;17.67;54.48
73518;BME280;61766;60.318;25.044;2023-08-08T07:59:37;99652.83;;;17.50;55.24
73518;BME280;61766;60.318;25.044;2023-08-08T08:02:03;99635.35;;;17.76;54.92
73518;BME280;61766;60.318;25.044;2023-08-08T08:04:29;99637.61;;;17.75;53.52
73518;BME280;61766;60.318;25.044;2023-08-08T08:06:55;99640.08;;;18.02;52.69
73518;BME280;61766;60.318;25.044;2023-08-08T08:09:20;99657.71;;;17.26;52.71
73518;BME280;61766;60.318;25.044;2023-08-08T08:11:46;99661.59;;;17.69;52.66
73518;BME280;61766;60.318;25.044;2023-08-08T08:14:12;99664.93;;;17.93;53.20
73518;BME280;61766;60.318;25.044;2023-08-08T08:16:38;99653.22;;;18.28;51.74
73518;BME280;61766;60.318;25.044;2023-08-08T08:19:03;99655.69;;;18.37;51.73
73518;BME280;61766;60.318;25.044;2023-08-08T08:21:29;99656.51;;;19.07;49.80
73518;BME280;61766;60.318;25.044;2023-08-08T08:23:55;99676.39;;;18.48;49.81
73518;BME280;61766;60.318;25.044;2023-08-08T08:26:20;99691.02;;;18.31;49.33
73518;BME280;61766;60.318;25.044;2023-08-08T08:28:46;99675.51;;;18.44;49.77
73518;BME280;61766;60.318;25.044;2023-08-08T08:31:12;99675.37;;;19.25;48.85
73518;BME280;61766;60.318;25.044;2023-08-08T08:33:37;99675.33;;;18.89;49.24
73518;BME280;61766;60.318;25.044;2023-08-08T08:36:03;99689.09;;;18.19;50.19
73518;BME280;61766;60.318;25.044;2023-08-08T08:38:29;99669.35;;;19.45;49.42
73518;BME280;61766;60.318;25.044;2023-08-08T08:40:57;99681.54;;;19.15;48.69
73518;BME280;61766;60.318;25.044;2023-08-08T08:43:20;99684.55;;;18.92;48.71
73518;BME280;61766;60.318;25.044;2023-08-08T08:45:47;99688.81;;;18.81;49.50
73518;BME280;61766;60.318;25.044;2023-08-08T08:48:12;99692.75;;;18.81;50.32
73518;BME280;61766;60.318;25.044;2023-08-08T08:50:38;99719.75;;;17.97;51.56
73518;BME280;61766;60.318;25.044;2023-08-08T08:53:03;99717.34;;;19.08;50.02
73518;BME280;61766;60.318;25.044;2023-08-08T08:55:29;99729.24;;;19.26;48.82
73518;BME280;61766;60.318;25.044;2023-08-08T08:57:54;99748.82;;;19.36;47.15
73518;BME280;61766;60.318;25.044;2023-08-08T09:00:20;99745.98;;;19.01;48.19
73518;BME280;61766;60.318;25.044;2023-08-08T09:02:46;99747.84;;;18.69;48.50
73518;BME280;61766;60.318;25.044;2023-08-08T09:05:12;99765.74;;;19.11;47.72
73518;BME280;61766;60.318;25.044;2023-08-08T09:07:38;99756.20;;;18.81;47.59
73518;BME280;61766;60.318;25.044;2023-08-08T09:10:03;99761.46;;;18.35;48.91
73518;BME280;61766;60.318;25.044;2023-08-08T09:12:29;99777.78;;;18.91;47.67
73518;BME280;61766;60.318;25.044;2023-08-08T09:14:58;99774.67;;;19.04;47.82
73518;BME280;61766;60.318;25.044;2023-08-08T09:17:20;99777.99;;;19.24;47.50
73518;BME280;61766;60.318;25.044;2023-08-08T09:19:46;99797.59;;;18.86;47.48
73518;BME280;61766;60.318;25.044;2023-08-08T09:22:11;99782.40;;;19.25;47.81
73518;BME280;61766;60.318;25.044;2023-08-08T09:24:37;99782.61;;;19.46;47.47
73518;BME280;61766;60.318;25.044;2023-08-08T09:27:01;99796.18;;;19.45;47.19
73518;BME280;61766;60.318;25.044;2023-08-08T09:29:27;99778.23;;;19.92;46.98
73518;BME280;61766;60.318;25.044;2023-08-08T09:31:53;99791.63;;;19.60;47.62
73518;BME280;61766;60.318;25.044;2023-08-08T09:34:18;99801.12;;;19.99;47.33
73518;BME280;61766;60.318;25.044;2023-08-08T09:36:44;99795.17;;;19.64;47.88
73518;BME280;61766;60.318;25.044;2023-08-08T09:39:10;99809.35;;;20.11;47.05
73518;BME280;61766;60.318;25.044;2023-08-08T09:41:35;99815.63;;;18.76;49.35
73518;BME280;61766;60.318;25.044;2023-08-08T09:44:01;99807.75;;;19.22;47.60
73518;BME280;61766;60.318;25.044;2023-08-08T09:46:30;99815.98;;;18.63;48.53
73518;BME280;61766;60.318;25.044;2023-08-08T09:48:53;99822.22;;;18.77;48.53
73518;BME280;61766;60.318;25.044;2023-08-08T09:51:18;99825.74;;;18.36;48.98
73518;BME280;61766;60.318;25.044;2023-08-08T09:53:45;99858.62;;;19.03;47.79
73518;BME280;61766;60.318;25.044;2023-08-08T09:56:10;99844.56;;;18.53;48.00
73518;BME280;61766;60.318;25.044;2023-08-08T09:58:35;99835.11;;;18.47;48.99
73518;BME280;61766;60.318;25.044;2023-08-08T10:01:01;99852.77;;;19.05;47.16
73518;BME280;61766;60.318;25.044;2023-08-08T10:03:27;99876.22;;;19.10;48.10
73518;BME280;61766;60.318;25.044;2023-08-08T10:05:52;99879.28;;;18.50;48.81
73518;BME280;61766;60.318;25.044;2023-08-08T10:08:19;99886.81;;;18.51;49.45
73518;BME280;61766;60.318;25.044;2023-08-08T10:10:45;99892.30;;;18.61;48.97
73518;BME280;61766;60.318;25.044;2023-08-08T10:13:10;99897.82;;;18.68;49.47
73518;BME280;61766;60.318;25.044;2023-08-08T10:15:36;99895.92;;;18.13;50.18
73518;BME280;61766;60.318;25.044;2023-08-08T10:18:01;99901.71;;;18.48;49.82
73518;BME280;61766;60.318;25.044;2023-08-08T10:20:28;99921.32;;;17.47;50.64
73518;BME280;61766;60.318;25.044;2023-08-08T10:22:55;99912.48;;;18.35;50.09
73518;BME280;61766;60.318;25.044;2023-08-08T10:25:23;99927.26;;;17.79;50.62
73518;BME280;61766;60.318;25.044;2023-08-08T10:27:44;99930.98;;;18.62;50.06
73518;BME280;61766;60.318;25.044;2023-08-08T10:30:11;99920.72;;;17.68;50.66
73518;BME280;61766;60.318;25.044;2023-08-08T10:32:40;99982.22;;;17.40;50.17
73518;BME280;61766;60.318;25.044;2023-08-08T10:35:06;99937.81;;;17.87;50.40
73518;BME280;61766;60.318;25.044;2023-08-08T10:37:27;99951.67;;;17.77;49.63
73518;BME280;61766;60.318;25.044;2023-08-08T10:39:55;99929.54;;;18.02;49.89
73518;BME280;61766;60.318;25.044;2023-08-08T10:42:22;99938.90;;;18.00;49.93
73518;BME280;61766;60.318;25.044;2023-08-08T10:44:49;99944.41;;;17.92;50.85
73518;BME280;61766;60.318;25.044;2023-08-08T10:47:10;99952.94;;;17.99;51.32
73518;BME280;61766;60.318;25.044;2023-08-08T10:49:35;99966.77;;;18.57;49.79
73518;BME280;61766;60.318;25.044;2023-08-08T10:52:05;99957.28;;;18.54;49.48
73518;BME280;61766;60.318;25.044;2023-08-08T10:54:27;99961.60;;;18.37;48.93
73518;BME280;61766;60.318;25.044;2023-08-08T10:56:53;99977.87;;;18.98;48.60
73518;BME280;61766;60.318;25.044;2023-08-08T10:59:19;99989.37;;;18.82;49.21
73518;BME280;61766;60.318;25.044;2023-08-08T11:01:45;99995.61;;;17.89;49.79
73518;BME280;61766;60.318;25.044;2023-08-08T11:04:10;100028.98;;;17.56;51.15
73518;BME280;61766;60.318;25.044;2023-08-08T11:06:36;100020.20;;;18.37;50.21
73518;BME280;61766;60.318;25.044;2023-08-08T11:09:01;100060.15;;;17.87;49.93
73518;BME280;61766;60.318;25.044;2023-08-08T11:11:26;100024.47;;;18.26;50.40
73518;BME280;61766;60.318;25.044;2023-08-08T11:13:54;100033.65;;;17.67;50.25
73518;BME280;61766;60.318;25.044;2023-08-08T11:16:18;100027.66;;;17.20;51.50
73518;BME280;61766;60.318;25.044;2023-08-08T11:18:45;100059.56;;;18.27;50.53
73518;BME280;61766;60.318;25.044;2023-08-08T11:21:13;100052.70;;;18.50;48.84
73518;BME280;61766;60.318;25.044;2023-08-08T11:23:36;100055.80;;;17.91;49.42
73518;BME280;61766;60.318;25.044;2023-08-08T11:26:01;100052.92;;;18.48;47.86
73518;BME280;61766;60.318;25.044;2023-08-08T11:28:26;100048.53;;;18.74;47.03
73518;BME280;61766;60.318;25.044;2023-08-08T11:30:54;100077.01;;;18.38;47.03
73518;BME280;61766;60.318;25.044;2023-08-08T11:33:19;100049.66;;;18.63;46.92
73518;BME280;61766;60.318;25.044;2023-08-08T11:35:47;100060.53;;;18.87;46.24
73518;BME280;61766;60.318;25.044;2023-08-08T11:38:09;100064.22;;;19.29;45.10
73518;BME280;61766;60.318;25.044;2023-08-08T11:40:35;100061.83;;;18.62;46.31
73518;BME280;61766;60.318;25.044;2023-08-08T11:43:00;100076.11;;;18.95;46.05
73518;BME280;61766;60.318;25.044;2023-08-08T11:45:26;100070.53;;;19.82;45.91
73518;BME280;61766;60.318;25.044;2023-08-08T11:47:53;100083.06;;;19.31;46.17
73518;BME280;61766;60.318;25.044;2023-08-08T11:50:19;100077.25;;;19.52;45.54
73518;BME280;61766;60.318;25.044;2023-08-08T11:52:45;100108.76;;;18.99;46.41
73518;BME280;61766;60.318;25.044;2023-08-08T11:55:09;100127.91;;;18.15;47.42
73518;BME280;61766;60.318;25.044;2023-08-08T11:57:35;100137.75;;;17.73;47.83
73518;BME280;61766;60.318;25.044;2023-08-08T12:00:00;100119.39;;;18.36;47.91
73518;BME280;61766;60.318;25.044;2023-08-08T12:02:26;100121.28;;;18.80;47.41
73518;BME280;61766;60.318;25.044;2023-08-08T12:04:51;100123.74;;;18.39;46.93
73518;BME280;61766;60.318;25.044;2023-08-08T12:07:17;100122.48;;;18.91;46.07
73518;BME280;61766;60.318;25.044;2023-08-08T12:09:43;100128.40;;;19.03;44.78
73518;BME280;61766;60.318;25.044;2023-08-08T12:12:09;100130.31;;;19.01;44.31
73518;BME280;61766;60.318;25.044;2023-08-08T12:14:41;100128.28;;;18.95;44.65
73518;BME280;61766;60.318;25.044;2023-08-08T12:17:00;100129.79;;;18.39;45.92
73518;BME280;61766;60.318;25.044;2023-08-08T12:19:26;100169.97;;;19.29;44.78
73518;BME280;61766;60.318;25.044;2023-08-08T12:21:51;100151.34;;;18.97;46.05
73518;BME280;61766;60.318;25.044;2023-08-08T12:24:17;100160.82;;;18.27;46.32
73518;BME280;61766;60.318;25.044;2023-08-08T12:26:43;100184.07;;;18.21;46.69
73518;BME280;61766;60.318;25.044;2023-08-08T12:29:08;100157.77;;;18.16;47.42
73518;BME280;61766;60.318;25.044;2023-08-08T12:31:34;100156.78;;;18.01;47.40
73518;BME280;61766;60.318;25.044;2023-08-08T12:34:00;100167.11;;;17.95;47.28
73518;BME280;61766;60.318;25.044;2023-08-08T12:36:25;100157.71;;;18.33;46.48
73518;BME280;61766;60.318;25.044;2023-08-08T12:38:51;100152.32;;;18.44;46.57